Flight Briefing for CPX324

Departure Arrival
March Air Reserve Base (KRIV)
Click to view FAA NOTAMS
Daniel K Inouye International Airport (PHNL)
Click to view FAA NOTAMS
Departure Time Arrival Time
N/A N/A
Aircraft Distance
B767-300BDSF 2277nm
Departure METAR Arrival METAR
KRIV 270958Z AUTO 00000KT 10SM SCT060 09/09 A2995 RMK AO2 SLP141 T00870087 PHNL 271053Z 00000KT 10SM FEW025 FEW045 25/19 A3003 RMK AO2 SLP168 T02500194 $
Suggested Route
SKYES3 OCN MALIT C1177 FICKY R578 FOMAS R578 DEREC MAKEN LNY JULLE5


View recent IFR Routes data
Notes



Charts and Procedures

Charts for KRIV
No chart available
Charts for PHNL
No chart available

Windy.com Weather Map